Time;durP1;ratioP1;P1;durP2;ratioP2;P2;SDS_P1;SDS_P2;PMS_P1;PMS_P2;Temp;Humidity;BMP_temperature;BMP_pressure;BME280_temperature;BME280_humidity;BME280_pressure;Samples;Min_cycle;Max_cycle;Signal;HPM_P1;HPM_P2
2023/08/02 00:02:15;;;;;;;24.02;5.75;;;;;;;;;;5018854;28;20074;-69
2023/08/02 00:04:41;;;;;;;26.95;5.90;;;;;;;;;;4999655;28;20068;-69
2023/08/02 00:07:06;;;;;;;24.42;5.28;;;;;;;;;;5019925;28;20116;-69
2023/08/02 00:09:32;;;;;;;28.08;5.57;;;;;;;;;;5018024;28;20033;-71
2023/08/02 00:11:57;;;;;;;25.40;5.88;;;;;;;;;;5020170;28;20041;-71
2023/08/02 00:14:23;;;;;;;31.58;6.80;;;;;;;;;;5019042;28;20041;-70
2023/08/02 00:16:48;;;;;;;22.85;5.47;;;;;;;;;;5018598;28;20041;-70
2023/08/02 00:19:13;;;;;;;26.70;6.30;;;;;;;;;;5001602;28;20029;-70
2023/08/02 00:21:39;;;;;;;23.48;6.13;;;;;;;;;;5021966;28;20045;-83
2023/08/02 00:24:04;;;;;;;22.90;5.85;;;;;;;;;;5022821;28;20048;-82
2023/08/02 00:26:29;;;;;;;22.38;5.72;;;;;;;;;;5021341;28;20559;-83
2023/08/02 00:28:55;;;;;;;23.40;6.20;;;;;;;;;;5019808;28;20045;-83
2023/08/02 00:31:20;;;;;;;26.73;6.18;;;;;;;;;;5021011;28;20425;-80
2023/08/02 00:33:45;;;;;;;30.00;7.30;;;;;;;;;;4988200;28;20037;-81
2023/08/02 00:36:13;;;;;;;29.45;6.65;;;;;;;;;;5003381;28;20764;-83
2023/08/02 00:38:38;;;;;;;27.52;6.40;;;;;;;;;;5019387;28;20033;-84
2023/08/02 00:41:07;;;;;;;29.15;6.97;;;;;;;;;;5017873;28;20041;-71
2023/08/02 00:43:42;;;;;;;23.75;6.10;;;;;;;;;;5000637;28;20032;-82
2023/08/02 00:46:08;;;;;;;24.75;6.50;;;;;;;;;;5016547;28;20036;-83
2023/08/02 00:48:34;;;;;;;26.80;6.35;;;;;;;;;;5016054;28;20056;-79
2023/08/02 00:51:02;;;;;;;25.38;7.03;;;;;;;;;;4999270;28;20406;-81
2023/08/02 00:53:27;;;;;;;28.20;6.63;;;;;;;;;;4984697;28;20037;-81
2023/08/02 00:55:54;;;;;;;34.10;6.53;;;;;;;;;;4997393;28;20556;-82
2023/08/02 00:58:19;;;;;;;31.38;7.00;;;;;;;;;;5018294;28;20045;-80
2023/08/02 01:00:45;;;;;;;25.92;5.75;;;;;;;;;;5014293;28;20179;-77
2023/08/02 01:03:10;;;;;;;30.48;9.40;;;;;;;;;;4997882;28;20037;-82
2023/08/02 01:05:46;;;;;;;34.55;10.07;;;;;;;;;;5001946;28;20033;-80
2023/08/02 01:08:16;;;;;;;27.92;9.90;;;;;;;;;;5016553;28;20185;-81
2023/08/02 01:10:58;;;;;;;35.47;13.50;;;;;;;;;;5018568;28;20037;-81
2023/08/02 01:13:23;;;;;;;29.33;12.13;;;;;;;;;;5020460;28;20116;-81
2023/08/02 01:15:49;;;;;;;25.13;9.88;;;;;;;;;;5018694;28;20580;-79
2023/08/02 01:18:14;;;;;;;22.95;8.55;;;;;;;;;;5018529;28;20041;-81
2023/08/02 01:20:39;;;;;;;24.23;8.77;;;;;;;;;;5016548;28;20044;-79
2023/08/02 01:23:05;;;;;;;20.42;8.48;;;;;;;;;;5018325;28;20208;-80
2023/08/02 01:25:31;;;;;;;18.95;7.85;;;;;;;;;;5018662;28;20056;-82
2023/08/02 01:27:58;;;;;;;23.73;7.22;;;;;;;;;;5020279;28;20040;-80
2023/08/02 01:30:25;;;;;;;24.15;7.43;;;;;;;;;;5018061;28;20110;-80
2023/08/02 01:32:51;;;;;;;19.67;8.13;;;;;;;;;;5017797;28;20116;-81
2023/08/02 01:35:16;;;;;;;21.90;7.47;;;;;;;;;;4999820;28;20805;-81
2023/08/02 01:37:42;;;;;;;22.85;7.80;;;;;;;;;;5001061;28;20048;-80
2023/08/02 01:40:09;;;;;;;20.67;7.07;;;;;;;;;;5018622;28;20041;-80
2023/08/02 01:42:36;;;;;;;21.38;7.30;;;;;;;;;;4999554;28;20552;-80
2023/08/02 01:45:03;;;;;;;19.80;7.72;;;;;;;;;;5018422;28;20188;-80
2023/08/02 01:47:29;;;;;;;22.73;8.05;;;;;;;;;;5004562;28;20033;-80
2023/08/02 01:49:54;;;;;;;22.75;8.05;;;;;;;;;;5000387;28;20119;-79
2023/08/02 01:52:19;;;;;;;22.08;8.13;;;;;;;;;;5019228;28;20360;-79
2023/08/02 01:54:45;;;;;;;21.15;7.72;;;;;;;;;;5016743;28;20033;-79
2023/08/02 01:57:10;;;;;;;19.25;6.90;;;;;;;;;;5015720;28;20029;-80
2023/08/02 01:59:35;;;;;;;23.05;7.57;;;;;;;;;;5014863;28;20669;-81
2023/08/02 02:02:01;;;;;;;19.27;8.43;;;;;;;;;;5014212;28;20045;-74
2023/08/02 02:04:26;;;;;;;20.20;6.93;;;;;;;;;;5016534;28;20038;-80
2023/08/02 02:06:51;;;;;;;19.80;7.72;;;;;;;;;;5018203;28;20029;-81
2023/08/02 02:09:17;;;;;;;21.00;7.45;;;;;;;;;;5019035;28;22290;-81
2023/08/02 02:11:42;;;;;;;22.38;8.18;;;;;;;;;;5019794;28;20033;-81
2023/08/02 02:14:09;;;;;;;24.45;9.18;;;;;;;;;;5017237;28;20477;-81
2023/08/02 02:16:34;;;;;;;21.65;8.55;;;;;;;;;;5018264;28;20045;-82
2023/08/02 02:18:59;;;;;;;21.08;8.07;;;;;;;;;;5016172;28;20033;-78
2023/08/02 02:21:25;;;;;;;21.25;8.10;;;;;;;;;;4998034;28;20048;-83
2023/08/02 02:23:50;;;;;;;18.77;7.70;;;;;;;;;;5016682;28;21826;-80
2023/08/02 02:26:15;;;;;;;21.33;7.80;;;;;;;;;;5015895;28;20033;-81
2023/08/02 02:28:40;;;;;;;21.98;8.40;;;;;;;;;;5019099;28;20870;-79
2023/08/02 02:31:06;;;;;;;21.92;8.23;;;;;;;;;;5016981;28;20045;-80
2023/08/02 02:33:33;;;;;;;24.38;8.93;;;;;;;;;;4998877;28;20147;-80
2023/08/02 02:35:59;;;;;;;18.05;7.90;;;;;;;;;;5014282;28;20497;-79
2023/08/02 02:38:24;;;;;;;23.73;9.50;;;;;;;;;;5015237;28;20156;-78
2023/08/02 02:40:49;;;;;;;19.85;9.18;;;;;;;;;;5016098;28;20041;-78
2023/08/02 02:43:15;;;;;;;24.77;9.18;;;;;;;;;;5019566;28;20033;-79
2023/08/02 02:45:40;;;;;;;21.70;9.02;;;;;;;;;;5019567;28;20738;-78
2023/08/02 02:48:05;;;;;;;19.75;9.38;;;;;;;;;;5018188;28;22468;-79
2023/08/02 02:50:31;;;;;;;28.05;9.80;;;;;;;;;;5022848;28;20715;-81
2023/08/02 02:52:56;;;;;;;19.30;8.80;;;;;;;;;;4997752;28;20501;-79
2023/08/02 02:55:22;;;;;;;22.90;8.85;;;;;;;;;;5023882;28;20052;-79
2023/08/02 02:57:47;;;;;;;23.38;8.35;;;;;;;;;;5000015;28;20037;-80
2023/08/02 03:00:12;;;;;;;20.10;7.38;;;;;;;;;;5001480;28;20253;-80
2023/08/02 03:02:37;;;;;;;20.48;8.25;;;;;;;;;;5013307;28;20482;-81
2023/08/02 03:05:03;;;;;;;18.08;7.10;;;;;;;;;;5015836;28;20033;-81
2023/08/02 03:07:30;;;;;;;14.50;7.35;;;;;;;;;;4998026;28;20040;-81
2023/08/02 03:09:56;;;;;;;23.60;8.15;;;;;;;;;;5019257;28;20037;-81
2023/08/02 03:12:22;;;;;;;25.73;8.60;;;;;;;;;;5019012;28;20112;-80
2023/08/02 03:14:47;;;;;;;23.63;7.65;;;;;;;;;;5022824;28;20517;-80
2023/08/02 03:17:15;;;;;;;18.65;8.00;;;;;;;;;;5015877;28;20029;-80
2023/08/02 03:19:40;;;;;;;27.08;8.35;;;;;;;;;;5005307;28;20033;-80
2023/08/02 03:22:08;;;;;;;24.00;9.02;;;;;;;;;;5018319;28;20660;-79
2023/08/02 03:24:36;;;;;;;27.10;9.40;;;;;;;;;;5026007;28;20094;-79
2023/08/02 03:27:01;;;;;;;23.65;9.32;;;;;;;;;;5018907;28;20101;-81
2023/08/02 03:29:26;;;;;;;28.52;9.88;;;;;;;;;;5018987;28;22280;-82
2023/08/02 03:31:52;;;;;;;18.25;7.88;;;;;;;;;;4998224;28;20030;-81
2023/08/02 03:34:17;;;;;;;23.80;10.13;;;;;;;;;;4995922;28;20505;-78
2023/08/02 03:36:42;;;;;;;24.63;9.50;;;;;;;;;;5017771;28;20037;-82
2023/08/02 03:39:08;;;;;;;27.52;13.18;;;;;;;;;;5019667;28;20118;-81
2023/08/02 03:41:34;;;;;;;25.25;10.48;;;;;;;;;;5018125;28;20049;-82
2023/08/02 03:43:59;;;;;;;23.33;10.32;;;;;;;;;;5018972;28;20025;-84
2023/08/02 03:46:24;;;;;;;35.13;14.40;;;;;;;;;;5017567;28;20041;-81
2023/08/02 03:48:50;;;;;;;34.17;15.75;;;;;;;;;;5016051;28;20517;-80
2023/08/02 03:51:15;;;;;;;39.05;19.70;;;;;;;;;;5000538;28;20686;-79
2023/08/02 03:53:40;;;;;;;40.58;19.05;;;;;;;;;;5021850;28;20072;-80
2023/08/02 03:56:06;;;;;;;40.38;17.10;;;;;;;;;;5017487;28;21352;-80
2023/08/02 03:58:31;;;;;;;33.03;16.60;;;;;;;;;;5018475;28;20056;-79
2023/08/02 04:00:56;;;;;;;36.00;15.65;;;;;;;;;;5021993;28;20037;-81
2023/08/02 04:03:22;;;;;;;33.75;14.88;;;;;;;;;;5018631;28;20645;-78
2023/08/02 04:05:47;;;;;;;29.60;12.60;;;;;;;;;;5015212;28;20104;-82
2023/08/02 04:08:12;;;;;;;25.48;11.27;;;;;;;;;;5024276;28;20662;-79
2023/08/02 04:10:37;;;;;;;26.15;9.65;;;;;;;;;;4989791;28;20048;-81
2023/08/02 04:13:03;;;;;;;25.38;9.18;;;;;;;;;;5025709;28;20092;-78
2023/08/02 04:15:32;;;;;;;24.77;10.77;;;;;;;;;;5027899;28;20033;-80
2023/08/02 04:17:57;;;;;;;22.60;10.43;;;;;;;;;;5023139;28;20123;-80
2023/08/02 04:20:23;;;;;;;28.63;10.18;;;;;;;;;;5003483;28;20797;-80
2023/08/02 04:22:49;;;;;;;26.98;9.20;;;;;;;;;;5024958;28;20034;-80
2023/08/02 04:25:15;;;;;;;21.42;9.13;;;;;;;;;;5002330;28;20022;-79
2023/08/02 04:27:40;;;;;;;22.77;8.45;;;;;;;;;;5022354;28;20044;-80
2023/08/02 04:30:06;;;;;;;22.85;7.85;;;;;;;;;;5005783;28;20132;-79
2023/08/02 04:32:31;;;;;;;18.65;6.90;;;;;;;;;;5026501;28;20037;-82
2023/08/02 04:34:57;;;;;;;20.38;6.85;;;;;;;;;;5024776;28;20485;-81
2023/08/02 04:37:22;;;;;;;17.88;7.53;;;;;;;;;;5024687;28;20531;-81
2023/08/02 04:39:47;;;;;;;20.10;7.55;;;;;;;;;;5023665;28;20029;-82
2023/08/02 04:42:15;;;;;;;22.45;7.55;;;;;;;;;;5023353;28;20560;-81
2023/08/02 04:44:40;;;;;;;20.02;8.48;;;;;;;;;;5019806;28;20044;-78
2023/08/02 04:47:05;;;;;;;19.25;8.50;;;;;;;;;;5020936;28;20041;-82
2023/08/02 04:49:30;;;;;;;20.92;8.88;;;;;;;;;;5026143;28;20091;-80
2023/08/02 04:51:56;;;;;;;22.17;9.30;;;;;;;;;;5028725;28;20112;-81
2023/08/02 04:54:21;;;;;;;20.10;9.23;;;;;;;;;;5007840;28;20994;-79
2023/08/02 04:56:46;;;;;;;26.00;10.70;;;;;;;;;;5025846;28;20064;-79
2023/08/02 04:59:13;;;;;;;19.58;10.07;;;;;;;;;;5019257;28;20033;-77
2023/08/02 05:01:38;;;;;;;21.15;10.52;;;;;;;;;;4998222;28;20747;-78
2023/08/02 05:04:07;;;;;;;19.77;10.43;;;;;;;;;;5020056;28;20037;-70
2023/08/02 05:06:33;;;;;;;23.98;12.00;;;;;;;;;;5013509;28;20820;-76
2023/08/02 05:08:58;;;;;;;22.55;12.73;;;;;;;;;;5012791;28;20065;-77
2023/08/02 05:11:26;;;;;;;22.13;12.00;;;;;;;;;;5015800;28;22015;-75
2023/08/02 05:13:54;;;;;;;24.73;11.70;;;;;;;;;;5016096;28;20083;-70
2023/08/02 05:16:19;;;;;;;21.70;11.65;;;;;;;;;;4998892;28;20572;-71
2023/08/02 05:18:45;;;;;;;26.90;12.02;;;;;;;;;;4994367;28;20040;-69
2023/08/02 05:21:13;;;;;;;21.20;11.13;;;;;;;;;;5010956;28;20045;-68
2023/08/02 05:23:39;;;;;;;21.55;11.30;;;;;;;;;;4996109;28;20040;-70
2023/08/02 05:26:07;;;;;;;21.23;10.43;;;;;;;;;;4968169;28;20043;-71
2023/08/02 05:28:32;;;;;;;18.95;9.63;;;;;;;;;;5012451;28;20056;-70
2023/08/02 05:30:58;;;;;;;19.45;9.68;;;;;;;;;;4996762;28;20043;-69
2023/08/02 05:33:23;;;;;;;19.73;9.50;;;;;;;;;;4993501;28;22301;-70
2023/08/02 05:35:51;;;;;;;18.35;10.10;;;;;;;;;;4994512;28;20087;-69
2023/08/02 05:38:17;;;;;;;16.58;9.63;;;;;;;;;;4996886;28;20029;-68
2023/08/02 05:40:42;;;;;;;19.65;10.43;;;;;;;;;;4979145;28;20045;-69
2023/08/02 05:43:10;;;;;;;19.33;10.05;;;;;;;;;;5011700;28;20045;-71
2023/08/02 05:45:35;;;;;;;20.98;11.52;;;;;;;;;;5013517;28;20133;-68
2023/08/02 05:48:00;;;;;;;18.63;11.32;;;;;;;;;;5012191;28;20045;-67
2023/08/02 05:50:28;;;;;;;20.60;12.82;;;;;;;;;;4983278;28;20110;-69
2023/08/02 05:52:53;;;;;;;24.10;12.07;;;;;;;;;;4992112;28;21096;-68
2023/08/02 05:55:18;;;;;;;27.17;14.20;;;;;;;;;;5010755;28;20095;-67
2023/08/02 05:57:44;;;;;;;21.25;11.52;;;;;;;;;;5013057;28;20041;-67
2023/08/02 06:00:10;;;;;;;25.85;12.30;;;;;;;;;;5015350;28;20111;-67
2023/08/02 06:02:36;;;;;;;22.63;12.65;;;;;;;;;;4996967;28;22363;-69
2023/08/02 06:05:01;;;;;;;25.63;14.52;;;;;;;;;;5015438;28;20152;-68
2023/08/02 06:07:26;;;;;;;26.45;15.38;;;;;;;;;;5011086;28;20033;-72
2023/08/02 06:09:54;;;;;;;20.95;13.50;;;;;;;;;;4996135;28;22312;-72
2023/08/02 06:12:19;;;;;;;22.90;13.52;;;;;;;;;;5009958;28;20151;-74
2023/08/02 06:14:44;;;;;;;18.70;12.48;;;;;;;;;;5004062;28;20104;-70
2023/08/02 06:17:10;;;;;;;19.17;12.80;;;;;;;;;;5009916;28;20041;-72
2023/08/02 06:19:35;;;;;;;20.85;12.88;;;;;;;;;;4995196;28;20597;-71
2023/08/02 06:22:00;;;;;;;22.25;15.15;;;;;;;;;;4993770;28;20056;-71
2023/08/02 06:24:26;;;;;;;21.35;13.50;;;;;;;;;;5011365;28;20036;-72
2023/08/02 06:26:51;;;;;;;15.52;11.07;;;;;;;;;;5014612;28;20036;-72
2023/08/02 06:29:16;;;;;;;15.48;10.73;;;;;;;;;;4984656;28;20041;-72
2023/08/02 06:31:44;;;;;;;13.75;10.43;;;;;;;;;;5012773;28;20589;-74
2023/08/02 06:34:09;;;;;;;18.65;12.60;;;;;;;;;;5015186;28;21040;-73
2023/08/02 06:36:38;;;;;;;18.45;11.80;;;;;;;;;;4993438;28;20047;-75
2023/08/02 06:39:03;;;;;;;17.58;11.68;;;;;;;;;;4995537;28;20485;-74
2023/08/02 06:41:28;;;;;;;20.55;12.73;;;;;;;;;;4996017;28;20045;-75
2023/08/02 06:43:54;;;;;;;15.70;11.52;;;;;;;;;;5014512;28;20045;-74
2023/08/02 06:46:19;;;;;;;17.08;11.90;;;;;;;;;;5012552;28;20590;-76
2023/08/02 06:48:44;;;;;;;19.63;12.55;;;;;;;;;;4993839;28;20529;-74
2023/08/02 06:51:13;;;;;;;18.60;12.85;;;;;;;;;;5013120;28;20563;-75
2023/08/02 06:53:39;;;;;;;20.48;12.70;;;;;;;;;;5012373;28;20414;-75
2023/08/02 06:56:16;;;;;;;18.20;13.15;;;;;;;;;;4995486;28;20059;-74
2023/08/02 06:58:41;;;;;;;14.93;11.48;;;;;;;;;;5013558;28;20970;-74
2023/08/02 07:01:10;;;;;;;17.10;11.15;;;;;;;;;;5015116;28;20067;-74
2023/08/02 07:03:36;;;;;;;16.17;10.95;;;;;;;;;;4999613;28;20041;-74
2023/08/02 07:06:06;;;;;;;17.70;10.85;;;;;;;;;;5013199;28;20040;-73
2023/08/02 07:08:32;;;;;;;18.65;10.80;;;;;;;;;;5014778;28;20290;-74
2023/08/02 07:10:57;;;;;;;13.13;9.60;;;;;;;;;;5014499;28;20521;-74
2023/08/02 07:13:22;;;;;;;16.40;10.07;;;;;;;;;;5003524;28;20041;-75
2023/08/02 07:15:48;;;;;;;14.93;9.70;;;;;;;;;;4992287;28;20560;-76
2023/08/02 07:18:13;;;;;;;15.23;9.48;;;;;;;;;;4978596;28;20731;-74
2023/08/02 07:20:38;;;;;;;13.80;7.78;;;;;;;;;;5015510;28;20118;-77
2023/08/02 07:23:04;;;;;;;10.75;7.30;;;;;;;;;;4997298;28;20036;-77
2023/08/02 07:25:29;;;;;;;10.80;6.57;;;;;;;;;;5012607;28;20132;-77
2023/08/02 07:27:54;;;;;;;8.07;5.38;;;;;;;;;;5012742;28;20040;-77
2023/08/02 07:30:20;;;;;;;9.02;6.00;;;;;;;;;;5011272;28;20143;-77
2023/08/02 07:32:45;;;;;;;8.50;5.95;;;;;;;;;;4993287;28;20040;-78
2023/08/02 07:35:11;;;;;;;7.78;5.57;;;;;;;;;;5012691;28;20426;-81
2023/08/02 07:37:36;;;;;;;7.82;4.78;;;;;;;;;;4997189;28;22060;-78
2023/08/02 07:40:03;;;;;;;7.97;4.15;;;;;;;;;;5014785;28;20033;-78
2023/08/02 07:42:29;;;;;;;7.68;4.75;;;;;;;;;;5002651;28;20046;-77
2023/08/02 07:45:03;;;;;;;5.68;3.88;;;;;;;;;;5016024;28;20463;-78
2023/08/02 07:47:28;;;;;;;8.48;4.70;;;;;;;;;;4997668;28;20093;-78
2023/08/02 07:49:53;;;;;;;8.57;5.28;;;;;;;;;;5018478;28;20025;-78
2023/08/02 07:52:19;;;;;;;6.80;4.38;;;;;;;;;;5018820;28;20126;-78
2023/08/02 07:54:44;;;;;;;7.57;4.07;;;;;;;;;;5017479;28;20358;-78
2023/08/02 07:57:09;;;;;;;9.30;3.72;;;;;;;;;;5015511;28;20558;-79
2023/08/02 07:59:35;;;;;;;5.85;3.42;;;;;;;;;;5016030;28;20506;-77
2023/08/02 08:02:00;;;;;;;5.57;4.05;;;;;;;;;;5014819;28;20083;-77
2023/08/02 08:04:25;;;;;;;4.47;3.42;;;;;;;;;;4997786;28;20571;-76
2023/08/02 08:06:50;;;;;;;6.60;2.85;;;;;;;;;;4999984;28;20037;-75
2023/08/02 08:09:20;;;;;;;5.28;3.33;;;;;;;;;;4995424;28;20029;-76
2023/08/02 08:11:47;;;;;;;;;;;;;;;;;;5016940;28;20748;-75
2023/08/02 08:14:13;;;;;;;6.17;3.70;;;;;;;;;;4998828;28;19913;-75
2023/08/02 08:16:41;;;;;;;6.88;4.30;;;;;;;;;;5016099;28;20695;-75
2023/08/02 08:19:06;;;;;;;10.52;6.82;;;;;;;;;;5014655;28;20401;-76
2023/08/02 08:21:34;;;;;;;7.22;4.10;;;;;;;;;;5001533;28;20136;-74
2023/08/02 08:23:59;;;;;;;14.35;7.15;;;;;;;;;;5014752;28;20035;-76
2023/08/02 08:26:25;;;;;;;10.27;6.45;;;;;;;;;;4998297;28;20502;-76
2023/08/02 08:28:51;;;;;;;8.52;4.18;;;;;;;;;;5016779;28;20037;-75
2023/08/02 08:31:19;;;;;;;7.65;4.97;;;;;;;;;;5015094;28;20172;-77
2023/08/02 08:33:44;;;;;;;6.95;3.80;;;;;;;;;;5012839;28;20041;-79
2023/08/02 08:36:15;;;;;;;5.30;2.35;;;;;;;;;;5009769;28;20110;-77
2023/08/02 08:38:43;;;;;;;9.63;5.80;;;;;;;;;;4991859;28;20033;-78
2023/08/02 08:41:12;;;;;;;11.85;7.53;;;;;;;;;;4999612;28;20587;-77
2023/08/02 08:43:37;;;;;;;14.57;8.70;;;;;;;;;;5012033;28;20334;-78
2023/08/02 08:46:05;;;;;;;10.10;6.80;;;;;;;;;;5013190;28;20033;-77
2023/08/02 08:48:33;;;;;;;6.03;4.60;;;;;;;;;;4994981;28;20037;-76
2023/08/02 08:51:01;;;;;;;5.93;3.42;;;;;;;;;;5014230;28;20711;-76
2023/08/02 08:53:33;;;;;;;6.53;4.22;;;;;;;;;;5011495;28;20516;-74
2023/08/02 08:56:00;;;;;;;5.82;4.30;;;;;;;;;;5013525;28;20037;-75
2023/08/02 08:58:26;;;;;;;9.35;5.97;;;;;;;;;;5015470;28;21182;-77
2023/08/02 09:00:53;;;;;;;7.15;5.55;;;;;;;;;;4997145;28;20037;-76
2023/08/02 09:03:21;;;;;;;12.40;6.78;;;;;;;;;;4998682;28;20037;-76
2023/08/02 09:05:46;;;;;;;8.68;6.40;;;;;;;;;;4979168;28;20118;-76
2023/08/02 09:08:12;;;;;;;8.73;5.00;;;;;;;;;;5000523;28;20588;-74
2023/08/02 09:10:38;;;;;;;7.82;4.70;;;;;;;;;;5017690;28;22308;-76
2023/08/02 09:13:03;;;;;;;13.57;5.28;;;;;;;;;;5014728;28;20033;-73
2023/08/02 09:15:29;;;;;;;8.57;5.53;;;;;;;;;;5016608;28;20086;-73
2023/08/02 09:17:54;;;;;;;7.55;5.60;;;;;;;;;;5002983;28;20368;-74
2023/08/02 09:20:21;;;;;;;8.02;5.70;;;;;;;;;;5000156;28;20041;-73
2023/08/02 09:22:49;;;;;;;6.80;4.47;;;;;;;;;;4996270;28;20885;-73
2023/08/02 09:25:25;;;;;;;5.85;4.57;;;;;;;;;;5014653;28;20117;-73
2023/08/02 09:27:51;;;;;;;11.05;5.55;;;;;;;;;;4983348;28;22273;-73
2023/08/02 09:30:24;;;;;;;8.35;5.43;;;;;;;;;;5015555;28;20148;-73
2023/08/02 09:33:03;;;;;;;8.10;5.22;;;;;;;;;;4985832;28;20167;-74
2023/08/02 09:35:33;;;;;;;7.78;5.25;;;;;;;;;;4994381;28;20064;-75
2023/08/02 09:37:59;;;;;;;7.68;4.93;;;;;;;;;;5015204;28;20585;-73
2023/08/02 09:40:38;;;;;;;6.80;4.63;;;;;;;;;;4999224;28;20032;-75
2023/08/02 09:43:06;;;;;;;7.80;4.75;;;;;;;;;;4996620;28;20029;-75
2023/08/02 09:45:34;;;;;;;8.27;4.75;;;;;;;;;;4996000;28;20025;-74
2023/08/02 09:48:00;;;;;;;10.55;6.60;;;;;;;;;;5013280;28;20033;-74
2023/08/02 09:50:27;;;;;;;8.57;5.80;;;;;;;;;;4994728;28;20037;-74
2023/08/02 09:52:52;;;;;;;10.43;7.05;;;;;;;;;;4998797;28;20044;-74
2023/08/02 09:55:20;;;;;;;13.32;10.43;;;;;;;;;;5011443;28;20663;-75
2023/08/02 09:57:47;;;;;;;13.38;8.30;;;;;;;;;;5013127;28;20034;-76
2023/08/02 10:00:13;;;;;;;9.32;3.60;;;;;;;;;;5010898;28;20033;-77
2023/08/02 10:02:38;;;;;;;18.15;3.90;;;;;;;;;;5000937;28;20119;-76
2023/08/02 10:05:06;;;;;;;20.80;5.60;;;;;;;;;;5014344;28;20342;-75
2023/08/02 10:07:42;;;;;;;19.23;3.33;;;;;;;;;;5012097;28;20134;-76
2023/08/02 10:10:29;;;;;;;21.38;3.85;;;;;;;;;;5012067;28;20874;-74
2023/08/02 10:13:23;;;;;;;21.40;4.15;;;;;;;;;;5008642;28;20048;-76
2023/08/02 10:15:52;;;;;;;20.05;3.90;;;;;;;;;;5011130;28;20041;-77
2023/08/02 10:18:17;;;;;;;20.85;4.00;;;;;;;;;;5009074;28;20029;-78
2023/08/02 10:20:43;;;;;;;20.35;4.05;;;;;;;;;;5012238;28;22173;-78
2023/08/02 10:23:09;;;;;;;23.25;4.10;;;;;;;;;;5011258;28;20056;-76
2023/08/02 10:25:35;;;;;;;27.42;4.50;;;;;;;;;;5016072;28;20033;-76
2023/08/02 10:28:02;;;;;;;25.35;4.10;;;;;;;;;;5000286;28;20048;-73
2023/08/02 10:30:29;;;;;;;21.38;4.03;;;;;;;;;;5014240;28;20037;-76
2023/08/02 10:33:13;;;;;;;18.83;4.05;;;;;;;;;;5014371;28;21002;-77
2023/08/02 10:35:58;;;;;;;28.35;5.93;;;;;;;;;;5014125;28;20883;-76
2023/08/02 10:38:29;;;;;;;22.08;4.78;;;;;;;;;;5011088;28;20759;-75
2023/08/02 10:41:02;;;;;;;18.88;4.00;;;;;;;;;;4996226;28;20815;-73
2023/08/02 10:43:28;;;;;;;15.80;3.20;;;;;;;;;;5005715;28;20032;-72
2023/08/02 10:46:26;;;;;;;19.40;3.20;;;;;;;;;;5007344;28;20674;-74
2023/08/02 10:48:54;;;;;;;18.00;3.17;;;;;;;;;;4973470;28;20474;-73
2023/08/02 10:51:32;;;;;;;15.05;2.80;;;;;;;;;;5011621;28;20033;-74
2023/08/02 10:54:15;;;;;;;17.27;3.10;;;;;;;;;;4991162;28;20095;-74
2023/08/02 10:56:54;;;;;;;17.03;3.47;;;;;;;;;;5011489;28;20059;-74
2023/08/02 10:59:22;;;;;;;18.60;3.25;;;;;;;;;;5008332;28;20377;-76
2023/08/02 11:01:59;;;;;;;14.02;2.50;;;;;;;;;;5009394;28;20102;-73
2023/08/02 11:04:25;;;;;;;15.18;2.67;;;;;;;;;;5001103;28;20162;-75
2023/08/02 11:06:50;;;;;;;17.40;2.88;;;;;;;;;;5012101;28;20041;-76
2023/08/02 11:09:16;;;;;;;15.52;2.03;;;;;;;;;;5009902;28;20091;-71
2023/08/02 11:11:43;;;;;;;14.50;2.88;;;;;;;;;;5015421;28;20040;-72
2023/08/02 11:14:09;;;;;;;13.85;2.63;;;;;;;;;;5004062;28;20728;-76
2023/08/02 11:16:41;;;;;;;13.65;2.45;;;;;;;;;;4997013;28;20036;-73
2023/08/02 11:19:12;;;;;;;17.23;2.47;;;;;;;;;;4995149;28;20060;-71
2023/08/02 11:21:53;;;;;;;17.42;2.97;;;;;;;;;;5014804;28;20082;-74
2023/08/02 11:24:19;;;;;;;17.75;3.20;;;;;;;;;;5011659;28;20596;-72
2023/08/02 11:26:51;;;;;;;16.63;3.17;;;;;;;;;;4998421;28;20037;-73
2023/08/02 11:29:17;;;;;;;18.60;3.50;;;;;;;;;;5015370;28;20029;-72
2023/08/02 11:31:42;;;;;;;16.73;3.05;;;;;;;;;;5015598;28;20042;-68
2023/08/02 11:34:08;;;;;;;19.85;3.58;;;;;;;;;;5013446;28;20399;-73
2023/08/02 11:36:33;;;;;;;22.25;4.15;;;;;;;;;;5013114;28;20041;-73
2023/08/02 11:38:59;;;;;;;18.98;3.55;;;;;;;;;;5016248;28;20033;-73
2023/08/02 11:41:25;;;;;;;17.48;3.35;;;;;;;;;;5015561;28;20045;-75
2023/08/02 11:43:52;;;;;;;19.50;3.30;;;;;;;;;;4997195;28;20543;-75
2023/08/02 11:46:23;;;;;;;19.30;3.45;;;;;;;;;;4995275;28;20057;-73
2023/08/02 11:48:49;;;;;;;16.67;3.58;;;;;;;;;;5003932;28;20086;-71
2023/08/02 11:51:15;;;;;;;17.30;3.25;;;;;;;;;;5003432;28;20035;-72
2023/08/02 11:53:51;;;;;;;24.05;3.60;;;;;;;;;;5012511;28;20044;-72
2023/08/02 11:56:16;;;;;;;22.65;3.90;;;;;;;;;;5012770;28;20028;-71
2023/08/02 11:58:42;;;;;;;19.95;3.60;;;;;;;;;;5015653;28;20048;-70
2023/08/02 12:01:12;;;;;;;25.50;4.43;;;;;;;;;;5011144;28;21906;-72
2023/08/02 12:03:40;;;;;;;21.70;3.92;;;;;;;;;;4995283;28;20047;-72
2023/08/02 12:06:05;;;;;;;16.52;3.58;;;;;;;;;;5015765;28;20458;-71
2023/08/02 12:08:30;;;;;;;19.33;3.25;;;;;;;;;;5013066;28;20033;-72
2023/08/02 12:11:03;;;;;;;24.52;3.85;;;;;;;;;;4997511;28;20111;-72
2023/08/02 12:13:28;;;;;;;22.42;3.80;;;;;;;;;;4991784;28;20048;-73
2023/08/02 12:15:58;;;;;;;18.92;3.83;;;;;;;;;;5014591;28;20128;-71
2023/08/02 12:18:23;;;;;;;23.35;4.63;;;;;;;;;;5002157;28;20029;-69
2023/08/02 12:20:48;;;;;;;18.45;3.33;;;;;;;;;;5012984;28;20098;-68
2023/08/02 12:23:29;;;;;;;22.10;4.47;;;;;;;;;;5001343;28;20966;-70
2023/08/02 12:25:54;;;;;;;25.52;4.10;;;;;;;;;;5006419;28;20101;-70
2023/08/02 12:28:19;;;;;;;26.23;4.20;;;;;;;;;;4996510;28;20657;-69
2023/08/02 12:31:03;;;;;;;21.55;4.65;;;;;;;;;;5013052;28;20033;-70
2023/08/02 12:33:29;;;;;;;19.15;3.63;;;;;;;;;;5009890;28;20052;-69
2023/08/02 12:35:54;;;;;;;23.30;3.58;;;;;;;;;;5015280;28;20055;-68
2023/08/02 12:38:19;;;;;;;21.77;4.25;;;;;;;;;;5017608;28;20622;-68
2023/08/02 12:40:47;;;;;;;27.17;4.25;;;;;;;;;;5018031;28;20045;-68
2023/08/02 12:43:13;;;;;;;25.45;5.07;;;;;;;;;;5005897;28;20075;-70
2023/08/02 12:45:38;;;;;;;23.77;4.20;;;;;;;;;;5000412;28;20033;-70
2023/08/02 12:48:06;;;;;;;27.02;4.57;;;;;;;;;;5017271;28;20041;-70
2023/08/02 12:50:33;;;;;;;26.88;4.38;;;;;;;;;;4998326;28;20033;-71
2023/08/02 12:52:59;;;;;;;25.27;4.43;;;;;;;;;;5001344;28;20540;-70
2023/08/02 12:55:24;;;;;;;26.13;4.40;;;;;;;;;;5013839;28;20087;-71
2023/08/02 12:57:49;;;;;;;30.48;4.88;;;;;;;;;;5015674;28;20025;-70
2023/08/02 13:00:17;;;;;;;23.50;4.60;;;;;;;;;;4999211;28;20051;-68
2023/08/02 13:02:42;;;;;;;16.60;3.30;;;;;;;;;;4988989;28;20724;-69
2023/08/02 13:05:08;;;;;;;20.33;4.32;;;;;;;;;;5013428;28;20070;-70
2023/08/02 13:07:33;;;;;;;26.02;4.72;;;;;;;;;;5016039;28;20536;-69
2023/08/02 13:09:58;;;;;;;23.88;4.00;;;;;;;;;;5015645;28;20798;-70
2023/08/02 13:12:24;;;;;;;23.52;4.70;;;;;;;;;;5014729;28;20045;-68
2023/08/02 13:14:49;;;;;;;19.35;3.70;;;;;;;;;;5015412;28;20757;-70
2023/08/02 13:17:14;;;;;;;27.60;4.70;;;;;;;;;;5014874;28;20190;-68
2023/08/02 13:19:42;;;;;;;24.25;4.03;;;;;;;;;;5000305;28;20033;-72
2023/08/02 13:22:08;;;;;;;22.50;4.35;;;;;;;;;;4980567;28;20559;-71
2023/08/02 13:24:33;;;;;;;24.58;4.25;;;;;;;;;;4978917;28;20043;-72
2023/08/02 13:26:59;;;;;;;21.13;4.35;;;;;;;;;;5004166;28;20156;-73
2023/08/02 13:29:24;;;;;;;25.52;5.03;;;;;;;;;;5014912;28;20048;-72
2023/08/02 13:31:51;;;;;;;28.52;5.40;;;;;;;;;;4995395;28;20493;-69
2023/08/02 13:34:16;;;;;;;23.98;4.88;;;;;;;;;;5014828;28;20033;-70
2023/08/02 13:36:42;;;;;;;26.02;5.20;;;;;;;;;;5013608;28;20075;-70
2023/08/02 13:39:07;;;;;;;24.98;4.70;;;;;;;;;;5013251;28;20187;-72
2023/08/02 13:41:32;;;;;;;37.25;6.35;;;;;;;;;;5012588;28;20044;-69
2023/08/02 13:43:58;;;;;;;32.45;5.15;;;;;;;;;;5015514;28;20164;-69
2023/08/02 13:46:23;;;;;;;38.55;5.63;;;;;;;;;;5013607;28;20486;-69
2023/08/02 13:48:48;;;;;;;32.95;6.45;;;;;;;;;;4992568;28;20044;-70
2023/08/02 13:51:14;;;;;;;29.60;5.35;;;;;;;;;;4992802;28;21593;-69
2023/08/02 13:53:39;;;;;;;26.55;5.00;;;;;;;;;;5009623;28;20575;-72
2023/08/02 13:56:04;;;;;;;29.75;5.68;;;;;;;;;;5015640;28;20041;-69
2023/08/02 13:58:30;;;;;;;38.20;6.22;;;;;;;;;;4999475;28;20142;-68
2023/08/02 14:00:56;;;;;;;28.90;5.78;;;;;;;;;;5011458;28;20044;-69
2023/08/02 14:03:21;;;;;;;34.30;5.95;;;;;;;;;;5008753;28;20033;-69
2023/08/02 14:05:46;;;;;;;26.70;5.25;;;;;;;;;;5012861;28;20039;-70
2023/08/02 14:08:12;;;;;;;27.75;5.82;;;;;;;;;;5015747;28;20040;-70
2023/08/02 14:10:39;;;;;;;39.33;7.30;;;;;;;;;;5002492;28;20063;-67
2023/08/02 14:13:07;;;;;;;39.33;6.25;;;;;;;;;;5016374;28;20056;-68
2023/08/02 14:15:35;;;;;;;29.80;5.65;;;;;;;;;;5001899;28;20109;-69
2023/08/02 14:18:02;;;;;;;38.33;6.35;;;;;;;;;;5010108;28;20054;-68
2023/08/02 14:20:28;;;;;;;36.15;6.13;;;;;;;;;;5014288;28;20045;-68
2023/08/02 14:22:54;;;;;;;26.73;5.82;;;;;;;;;;4999404;28;20044;-67
2023/08/02 14:25:22;;;;;;;34.10;6.07;;;;;;;;;;5013792;28;20037;-69
2023/08/02 14:27:47;;;;;;;39.13;6.07;;;;;;;;;;4999172;28;20029;-67